Time;durP1;ratioP1;P1;durP2;ratioP2;P2;SDS_P1;SDS_P2;PMS_P1;PMS_P2;Temp;Humidity;BMP_temperature;BMP_pressure;BME280_temperature;BME280_humidity;BME280_pressure;Samples;Min_cycle;Max_cycle;Signal;HPM_P1;HPM_P2
2022/10/31 00:02:23;;;;;;;;;;;;;;;12.98;73.28;101218.59;5085228;28;19912;-31
2022/10/31 00:04:48;;;;;;;;;;;;;;;12.97;73.32;101204.47;5076449;28;19970;-31
2022/10/31 00:07:13;;;;;;;;;;;;;;;12.95;73.10;101209.78;5078736;28;19916;-31
2022/10/31 00:09:38;;;;;;;;;;;;;;;12.96;73.21;101208.03;5060220;28;19966;-31
2022/10/31 00:12:04;;;;;;;;;;;;;;;12.95;73.00;101215.09;5081578;28;19916;-31
2022/10/31 00:14:29;;;;;;;;;;;;;;;12.94;72.90;101215.13;5083913;28;19932;-31
2022/10/31 00:16:54;;;;;;;;;;;;;;;12.93;73.05;101213.34;5060072;28;19916;-31
2022/10/31 00:19:19;;;;;;;;;;;;;;;12.91;73.06;101216.00;5078031;28;19912;-31
2022/10/31 00:21:45;;;;;;;;;;;;;;;12.90;73.07;101213.41;5078340;28;19916;-31
2022/10/31 00:24:10;;;;;;;;;;;;;;;12.88;72.71;101213.44;5098232;28;19918;-31
2022/10/31 00:26:35;;;;;;;;;;;;;;;12.87;72.98;101216.94;5087190;28;19920;-31
2022/10/31 00:29:00;;;;;;;;;;;;;;;12.84;73.08;101217.00;5043044;28;19920;-31
2022/10/31 00:31:27;;;;;;;;;;;;;;;12.84;72.76;101219.66;5077573;28;20293;-31
2022/10/31 00:33:52;;;;;;;;;;;;;;;12.82;72.88;101213.47;5079396;28;20294;-31
2022/10/31 00:36:18;;;;;;;;;;;;;;;12.81;72.97;101219.66;5098201;28;19946;-32
2022/10/31 00:38:43;;;;;;;;;;;;;;;12.80;72.65;101226.72;5098093;28;20420;-32
2022/10/31 00:41:13;;;;;;;;;;;;;;;12.76;73.00;101227.66;5094374;28;19912;-31
2022/10/31 00:43:38;;;;;;;;;;;;;;;12.78;73.03;101230.28;5078991;28;19920;-31
2022/10/31 00:46:03;;;;;;;;;;;;;;;12.75;72.90;101239.13;5056718;28;19958;-32
2022/10/31 00:48:29;;;;;;;;;;;;;;;12.73;72.95;101232.97;5074882;28;19924;-32
2022/10/31 00:50:54;;;;;;;;;;;;;;;12.73;72.90;101232.97;5074131;28;19920;-32
2022/10/31 00:53:19;;;;;;;;;;;;;;;12.72;72.54;101235.63;5087605;28;19939;-32
2022/10/31 00:55:44;;;;;;;;;;;;;;;12.71;72.64;101242.69;5093104;28;20293;-32
2022/10/31 00:58:10;;;;;;;;;;;;;;;12.67;72.63;101230.38;5095054;28;20270;-31
2022/10/31 01:00:35;;;;;;;;;;;;;;;12.66;72.79;101242.72;5094339;28;20289;-31
2022/10/31 01:03:00;;;;;;;;;;;;;;;12.65;72.84;101240.97;5093961;28;20320;-31
2022/10/31 01:05:26;;;;;;;;;;;;;;;12.62;72.76;101246.31;5094699;28;19966;-31
2022/10/31 01:07:51;;;;;;;;;;;;;;;12.60;72.98;101245.41;5076340;28;19972;-31
2022/10/31 01:10:17;;;;;;;;;;;;;;;12.59;72.47;101246.31;5094210;28;19916;-31
2022/10/31 01:12:44;;;;;;;;;;;;;;;12.56;72.77;101244.59;5086840;28;20323;-31
2022/10/31 01:15:10;;;;;;;;;;;;;;;12.55;72.50;101252.53;5074145;28;20002;-31
2022/10/31 01:17:35;;;;;;;;;;;;;;;12.52;72.82;101250.78;5074037;28;19924;-31
2022/10/31 01:20:00;;;;;;;;;;;;;;;12.50;72.71;101249.06;5072562;28;19913;-31
2022/10/31 01:22:25;;;;;;;;;;;;;;;12.48;72.53;101250.81;5078331;28;20007;-31
2022/10/31 01:24:51;;;;;;;;;;;;;;;12.47;72.36;101260.50;5094599;28;20058;-31
2022/10/31 01:27:16;;;;;;;;;;;;;;;12.44;72.10;101248.19;5074363;28;20003;-31
2022/10/31 01:29:41;;;;;;;;;;;;;;;12.43;72.10;101250.84;5093513;28;19948;-31
2022/10/31 01:32:06;;;;;;;;;;;;;;;12.40;72.41;101253.50;5093226;28;19912;-31
2022/10/31 01:34:31;;;;;;;;;;;;;;;12.38;72.05;101248.25;5093968;28;19916;-31
2022/10/31 01:36:57;;;;;;;;;;;;;;;12.37;72.26;101248.25;5093820;28;19916;-31
2022/10/31 01:39:22;;;;;;;;;;;;;;;12.34;72.35;101245.63;5094086;28;19912;-31
2022/10/31 01:41:48;;;;;;;;;;;;;;;12.32;72.14;101251.81;5093781;28;19912;-31
2022/10/31 01:44:13;;;;;;;;;;;;;;;12.29;72.39;101254.47;5074251;28;19985;-31
2022/10/31 01:46:40;;;;;;;;;;;;;;;12.28;72.06;101254.50;5073492;28;20380;-31
2022/10/31 01:49:06;;;;;;;;;;;;;;;12.26;72.15;101254.50;5073472;28;19916;-31
2022/10/31 01:51:33;;;;;;;;;;;;;;;12.23;71.88;101257.16;5071868;28;19954;-32
2022/10/31 01:53:59;;;;;;;;;;;;;;;12.21;71.99;101250.13;5089911;28;19963;-31
2022/10/31 01:56:24;;;;;;;;;;;;;;;12.19;71.88;101245.75;5072576;28;19923;-31
2022/10/31 01:58:49;;;;;;;;;;;;;;;12.17;71.92;101257.22;5071455;28;20000;-31
2022/10/31 02:01:15;;;;;;;;;;;;;;;12.15;72.01;101251.94;5073174;28;19916;-31
2022/10/31 02:03:40;;;;;;;;;;;;;;;12.13;71.77;101253.69;5075128;28;19924;-31
2022/10/31 02:06:06;;;;;;;;;;;;;;;12.12;71.69;101253.72;5075048;28;19920;-31
2022/10/31 02:08:31;;;;;;;;;;;;;;;12.08;71.62;101247.56;5093625;28;19912;-31
2022/10/31 02:10:57;;;;;;;;;;;;;;;12.07;71.92;101253.72;5092889;28;19916;-31
2022/10/31 02:13:22;;;;;;;;;;;;;;;12.04;71.81;101251.09;5054883;28;19959;-31
2022/10/31 02:15:49;;;;;;;;;;;;;;;12.02;71.86;101255.50;5056048;28;20292;-31
2022/10/31 02:18:14;;;;;;;;;;;;;;;11.98;71.84;101264.34;5055054;28;19918;-31
2022/10/31 02:20:46;;;;;;;;;;;;;;;11.98;71.83;101269.63;5072430;28;20038;-31
2022/10/31 02:23:20;;;;;;;;;;;;;;;11.96;71.89;101271.38;5081291;28;20373;-31
2022/10/31 02:26:04;;;;;;;;;;;;;;;11.92;71.89;101274.06;5091725;28;19931;-31
2022/10/31 02:28:44;;;;;;;;;;;;;;;11.90;71.92;101278.47;5092645;28;19912;-31
2022/10/31 02:31:15;;;;;;;;;;;;;;;11.89;71.98;101271.44;5092670;28;20395;-31
2022/10/31 02:33:42;;;;;;;;;;;;;;;11.87;71.95;101273.19;5085112;28;20331;-31
2022/10/31 02:36:10;;;;;;;;;;;;;;;11.83;72.07;101279.38;5093186;28;19912;-31
2022/10/31 02:38:49;;;;;;;;;;;;;;;11.80;72.00;101272.34;5092866;28;20446;-31
2022/10/31 02:41:14;;;;;;;;;;;;;;;11.80;71.84;101284.66;5091205;28;19935;-31
2022/10/31 02:43:39;;;;;;;;;;;;;;;11.77;71.93;101280.28;5091954;28;20436;-31
2022/10/31 02:46:07;;;;;;;;;;;;;;;11.76;71.92;101275.00;5092914;28;19963;-31
2022/10/31 02:48:35;;;;;;;;;;;;;;;11.74;72.03;101275.00;5092775;28;19912;-31
2022/10/31 02:51:00;;;;;;;;;;;;;;;11.72;71.73;101273.25;5074515;28;19912;-31
2022/10/31 02:53:26;;;;;;;;;;;;;;;11.70;71.73;101280.34;5063045;28;19921;-31
2022/10/31 02:55:56;;;;;;;;;;;;;;;11.66;71.79;101280.34;5072937;28;19923;-31
2022/10/31 02:58:22;;;;;;;;;;;;;;;11.65;71.73;101280.34;5070398;28;19912;-31
2022/10/31 03:01:06;;;;;;;;;;;;;;;11.63;71.72;101274.16;5072187;28;19913;-31
2022/10/31 03:03:34;;;;;;;;;;;;;;;11.60;71.64;101280.34;5083352;28;20015;-31
2022/10/31 03:06:00;;;;;;;;;;;;;;;11.59;71.90;101277.72;5092294;28;20019;-31
2022/10/31 03:08:34;;;;;;;;;;;;;;;11.55;71.66;101280.34;5074390;28;20158;-32
2022/10/31 03:11:00;;;;;;;;;;;;;;;11.53;71.67;101290.06;5091881;28;19959;-32
2022/10/31 03:13:34;;;;;;;;;;;;;;;11.52;71.88;101290.97;5081365;28;19975;-31
2022/10/31 03:16:03;;;;;;;;;;;;;;;11.49;71.88;101293.59;5072185;28;19916;-31
2022/10/31 03:18:29;;;;;;;;;;;;;;;11.46;71.72;101290.97;5072196;28;19959;-31
2022/10/31 03:20:59;;;;;;;;;;;;;;;11.45;72.02;101302.44;5070217;28;19913;-31
2022/10/31 03:23:24;;;;;;;;;;;;;;;11.42;71.83;101292.75;5064302;28;19922;-31
2022/10/31 03:25:50;;;;;;;;;;;;;;;11.39;71.73;101300.69;5072954;28;20015;-31
2022/10/31 03:28:16;;;;;;;;;;;;;;;11.37;72.03;101299.78;5091135;28;19916;-31
2022/10/31 03:30:42;;;;;;;;;;;;;;;11.35;71.88;101309.50;5064702;28;19917;-31
2022/10/31 03:33:10;;;;;;;;;;;;;;;11.32;71.70;101305.97;5061721;28;19916;-31
2022/10/31 03:35:35;;;;;;;;;;;;;;;11.31;71.69;101313.03;5073717;28;20505;-31
2022/10/31 03:38:00;;;;;;;;;;;;;;;11.28;71.84;101313.88;5092403;28;19912;-31
2022/10/31 03:40:26;;;;;;;;;;;;;;;11.27;71.64;101313.91;5091923;28;20274;-31
2022/10/31 03:42:55;;;;;;;;;;;;;;;11.24;71.68;101316.56;5053196;28;20277;-31
2022/10/31 03:45:24;;;;;;;;;;;;;;;11.21;72.00;101320.09;5054193;28;19923;-31
2022/10/31 03:47:49;;;;;;;;;;;;;;;11.20;71.66;101317.44;5053806;28;20335;-31
2022/10/31 03:50:15;;;;;;;;;;;;;;;11.16;72.17;101312.16;5053364;28;19942;-31
2022/10/31 03:52:43;;;;;;;;;;;;;;;11.14;71.98;101308.63;5056999;28;20018;-31
2022/10/31 03:55:14;;;;;;;;;;;;;;;11.12;72.04;101314.81;5092008;28;19912;-31
2022/10/31 03:57:39;;;;;;;;;;;;;;;11.10;71.80;101324.50;5091707;28;19938;-31
2022/10/31 04:00:06;;;;;;;;;;;;;;;11.07;71.69;101325.34;5073741;28;20301;-31
2022/10/31 04:02:32;;;;;;;;;;;;;;;11.07;71.67;101322.72;5085296;28;19912;-31
2022/10/31 04:04:58;;;;;;;;;;;;;;;11.05;71.72;101329.78;5071021;28;20381;-31
2022/10/31 04:07:23;;;;;;;;;;;;;;;11.02;71.76;101320.09;5070745;28;20123;-31
2022/10/31 04:09:48;;;;;;;;;;;;;;;11.00;71.89;101326.25;5070019;28;19921;-31
2022/10/31 04:12:17;;;;;;;;;;;;;;;10.95;71.73;101320.09;5069991;28;19995;-31
2022/10/31 04:14:44;;;;;;;;;;;;;;;10.92;72.15;101323.63;5090610;28;20440;-31
2022/10/31 04:17:10;;;;;;;;;;;;;;;10.88;71.84;101328.00;5095141;28;20027;-31
2022/10/31 04:19:35;;;;;;;;;;;;;;;10.87;72.02;101334.16;5077149;28;20349;-31
2022/10/31 04:22:01;;;;;;;;;;;;;;;10.85;72.13;101330.66;5095160;28;19995;-31
2022/10/31 04:24:26;;;;;;;;;;;;;;;10.83;72.34;101336.78;5078445;28;19931;-31
2022/10/31 04:26:51;;;;;;;;;;;;;;;10.81;72.42;101335.94;5075214;28;20297;-31
2022/10/31 04:29:16;;;;;;;;;;;;;;;10.80;72.45;101334.19;5073819;28;20277;-31
2022/10/31 04:31:42;;;;;;;;;;;;;;;10.77;72.37;101337.66;5090468;28;19916;-31
2022/10/31 04:34:07;;;;;;;;;;;;;;;10.74;72.16;101350.88;5094517;28;20396;-31
2022/10/31 04:36:32;;;;;;;;;;;;;;;10.74;72.10;101353.53;5095376;28;19912;-31
2022/10/31 04:38:57;;;;;;;;;;;;;;;10.73;72.33;101352.63;5095148;28;19912;-31
2022/10/31 04:41:23;;;;;;;;;;;;;;;10.70;72.29;101354.41;5076405;28;19919;-31
2022/10/31 04:43:48;;;;;;;;;;;;;;;10.67;72.34;101349.09;5084436;28;19913;-31
2022/10/31 04:46:13;;;;;;;;;;;;;;;10.66;72.26;101356.13;5074670;28;20406;-31
2022/10/31 04:48:38;;;;;;;;;;;;;;;10.65;72.38;101359.66;5075045;28;19916;-31
2022/10/31 04:51:03;;;;;;;;;;;;;;;10.62;72.39;101354.38;5074817;28;20371;-31
2022/10/31 04:53:29;;;;;;;;;;;;;;;10.59;72.41;101352.63;5095023;28;20399;-31
2022/10/31 04:55:54;;;;;;;;;;;;;;;10.58;72.26;101361.41;5076643;28;19912;-31
2022/10/31 04:58:19;;;;;;;;;;;;;;;10.55;72.09;101357.88;5094669;28;19912;-31
2022/10/31 05:00:45;;;;;;;;;;;;;;;10.53;72.39;101352.59;5088356;28;19985;-31
2022/10/31 05:03:10;;;;;;;;;;;;;;;10.52;72.44;101362.28;5075384;28;20328;-31
2022/10/31 05:05:35;;;;;;;;;;;;;;;10.49;72.26;101366.66;5074382;28;20277;-31
2022/10/31 05:08:00;;;;;;;;;;;;;;;10.47;72.01;101360.50;5074507;28;19912;-31
2022/10/31 05:10:27;;;;;;;;;;;;;;;10.46;72.36;101358.72;5082672;28;19920;-31
2022/10/31 05:12:59;;;;;;;;;;;;;;;10.43;72.44;101353.44;5094370;28;20441;-31
2022/10/31 05:15:25;;;;;;;;;;;;;;;10.40;72.41;101357.81;5076257;28;20002;-31
2022/10/31 05:17:50;;;;;;;;;;;;;;;10.39;72.11;101355.16;5094407;28;19998;-31
2022/10/31 05:20:16;;;;;;;;;;;;;;;10.36;72.13;101345.50;5093661;28;19927;-31
2022/10/31 05:22:47;;;;;;;;;;;;;;;10.36;72.12;101341.97;5094239;28;19912;-31
2022/10/31 05:25:12;;;;;;;;;;;;;;;10.33;72.35;101344.59;5094360;28;19916;-31
2022/10/31 05:27:40;;;;;;;;;;;;;;;10.29;72.31;101338.44;5093045;28;20214;-31
2022/10/31 05:30:05;;;;;;;;;;;;;;;10.30;72.55;101337.56;5087168;28;19916;-31
2022/10/31 05:32:36;;;;;;;;;;;;;;;10.27;72.49;101333.16;5094487;28;19965;-32
2022/10/31 05:35:01;;;;;;;;;;;;;;;10.24;72.22;101341.06;5094226;28;19975;-31
2022/10/31 05:37:26;;;;;;;;;;;;;;;10.25;72.22;101347.22;5094281;28;20368;-31
2022/10/31 05:39:51;;;;;;;;;;;;;;;10.23;72.42;101346.31;5093149;28;20380;-32
2022/10/31 05:42:16;;;;;;;;;;;;;;;10.20;72.09;101349.84;5093626;28;19938;-31
2022/10/31 05:44:42;;;;;;;;;;;;;;;10.19;72.28;101355.09;5093958;28;20030;-31
2022/10/31 05:47:07;;;;;;;;;;;;;;;10.17;72.49;101348.97;5068226;28;19964;-31
2022/10/31 05:49:32;;;;;;;;;;;;;;;10.16;72.18;101358.59;5073501;28;19919;-31
2022/10/31 05:51:57;;;;;;;;;;;;;;;10.13;72.27;101346.31;5073501;28;19920;-31
2022/10/31 05:54:23;;;;;;;;;;;;;;;10.12;72.28;101344.56;5073579;28;19912;-31
2022/10/31 05:56:48;;;;;;;;;;;;;;;10.09;72.06;101348.91;5077874;28;19916;-31
2022/10/31 05:59:13;;;;;;;;;;;;;;;10.08;72.13;101355.06;5091996;28;20007;-31
2022/10/31 06:01:38;;;;;;;;;;;;;;;10.05;72.37;101361.22;5077946;28;19986;-31
2022/10/31 06:04:04;;;;;;;;;;;;;;;10.03;72.43;101352.41;5071586;28;19913;-31
2022/10/31 06:06:29;;;;;;;;;;;;;;;10.01;72.45;101357.66;5075170;28;19924;-30
2022/10/31 06:08:54;;;;;;;;;;;;;;;10.01;72.39;101367.34;5094282;28;19912;-31
2022/10/31 06:11:19;;;;;;;;;;;;;;;10.00;72.15;101373.47;5093132;28;19920;-30
2022/10/31 06:13:45;;;;;;;;;;;;;;;9.98;72.11;101372.59;5093356;28;19923;-30
2022/10/31 06:16:10;;;;;;;;;;;;;;;9.96;72.37;101371.69;5093452;28;19912;-30
2022/10/31 06:18:35;;;;;;;;;;;;;;;9.95;72.28;101383.13;5059235;28;20388;-30
2022/10/31 06:21:00;;;;;;;;;;;;;;;9.94;72.33;101373.47;5092826;28;19934;-30
2022/10/31 06:23:25;;;;;;;;;;;;;;;9.91;72.18;101376.06;5093163;28;19916;-30
2022/10/31 06:25:51;;;;;;;;;;;;;;;9.89;72.53;101378.69;5093095;28;19916;-30
2022/10/31 06:28:16;;;;;;;;;;;;;;;9.89;72.33;101389.25;5058226;28;19948;-31
2022/10/31 06:30:42;;;;;;;;;;;;;;;9.87;72.60;101388.38;5072309;28;19920;-31
2022/10/31 06:33:07;;;;;;;;;;;;;;;9.84;72.44;101381.31;5071991;28;19916;-31
2022/10/31 06:35:32;;;;;;;;;;;;;;;9.82;72.49;101384.81;5072816;28;20026;-31
2022/10/31 06:37:58;;;;;;;;;;;;;;;9.80;72.72;101392.69;5085659;28;19916;-31
2022/10/31 06:40:23;;;;;;;;;;;;;;;9.79;72.70;101390.06;5074565;28;19912;-31
2022/10/31 06:42:58;;;;;;;;;;;;;;;9.79;72.76;101395.31;5074536;28;19912;-31
2022/10/31 06:45:23;;;;;;;;;;;;;;;9.77;72.55;101397.09;5074927;28;19924;-31
2022/10/31 06:47:52;;;;;;;;;;;;;;;9.77;72.65;101397.94;5080136;28;19977;-31
2022/10/31 06:50:19;;;;;;;;;;;;;;;9.75;72.49;101407.63;5072454;28;19912;-32
2022/10/31 06:52:49;;;;;;;;;;;;;;;9.74;72.95;101404.09;5072790;28;19951;-31
2022/10/31 06:55:14;;;;;;;;;;;;;;;9.73;72.66;101407.59;5073449;28;19960;-31
2022/10/31 06:57:39;;;;;;;;;;;;;;;9.72;72.58;101405.84;5072331;28;20382;-32
2022/10/31 07:00:05;;;;;;;;;;;;;;;9.72;72.89;101410.22;5088921;28;19917;-31
2022/10/31 07:02:30;;;;;;;;;;;;;;;9.70;73.01;101415.47;5072985;28;19916;-32
2022/10/31 07:04:55;;;;;;;;;;;;;;;9.70;72.78;101419.88;5090171;28;20344;-31
2022/10/31 07:07:21;;;;;;;;;;;;;;;9.72;73.02;101428.66;5071106;28;19947;-31
2022/10/31 07:09:46;;;;;;;;;;;;;;;9.68;73.23;101433.03;5072042;28;20003;-31
2022/10/31 07:12:12;;;;;;;;;;;;;;;9.69;73.13;101426.88;5077299;28;19923;-30
2022/10/31 07:14:37;;;;;;;;;;;;;;;9.69;73.18;101431.28;5072334;28;20399;-30
2022/10/31 07:17:02;;;;;;;;;;;;;;;9.70;73.40;101427.78;5071099;28;19963;-30
2022/10/31 07:19:27;;;;;;;;;;;;;;;9.71;73.48;101437.44;5091267;28;19916;-31
2022/10/31 07:21:52;;;;;;;;;;;;;;;9.74;73.60;101434.84;5092161;28;19999;-30
2022/10/31 07:24:18;;;;;;;;;;;;;;;9.75;73.77;101426.94;5073961;28;19943;-30
2022/10/31 07:26:45;;;;;;;;;;;;;;;9.77;74.00;101436.59;5092144;28;19912;-30
2022/10/31 07:29:11;;;;;;;;;;;;;;;9.77;74.11;101437.47;5075630;28;19969;-30
2022/10/31 07:31:36;;;;;;;;;;;;;;;9.78;74.34;101441.88;5070392;28;19916;-30
2022/10/31 07:34:01;;;;;;;;;;;;;;;9.79;74.35;101438.38;5071749;28;19954;-30
2022/10/31 07:36:27;;;;;;;;;;;;;;;9.83;74.58;101445.41;5072034;28;19919;-30
2022/10/31 07:38:52;;;;;;;;;;;;;;;9.84;74.92;101441.91;5085049;28;20435;-31
2022/10/31 07:41:17;;;;;;;;;;;;;;;9.86;74.95;101442.81;5088869;28;19942;-30
2022/10/31 07:43:43;;;;;;;;;;;;;;;9.87;74.92;101448.97;5091994;28;19913;-30
2022/10/31 07:46:08;;;;;;;;;;;;;;;9.88;74.57;101446.31;5091981;28;19916;-30
2022/10/31 07:48:34;;;;;;;;;;;;;;;9.93;74.57;101450.72;5090255;28;19916;-30
2022/10/31 07:50:59;;;;;;;;;;;;;;;9.97;74.29;101452.53;5094954;28;20037;-30
2022/10/31 07:53:24;;;;;;;;;;;;;;;10.00;74.27;101445.53;5096163;28;19919;-30
2022/10/31 07:55:50;;;;;;;;;;;;;;;10.02;74.12;101453.44;5066022;28;19923;-30
2022/10/31 07:58:16;;;;;;;;;;;;;;;10.06;74.03;101452.59;5076580;28;19928;-30
2022/10/31 08:00:42;;;;;;;;;;;;;;;10.09;74.14;101452.59;5090191;28;19916;-30
2022/10/31 08:03:10;;;;;;;;;;;;;;;10.14;74.24;101450.88;5095656;28;20062;-30
2022/10/31 08:05:36;;;;;;;;;;;;;;;10.17;74.09;101444.72;5089443;28;19933;-30
2022/10/31 08:08:02;;;;;;;;;;;;;;;10.21;74.24;101449.13;5083688;28;19920;-30
2022/10/31 08:10:27;;;;;;;;;;;;;;;10.24;74.13;101443.88;5095304;28;19920;-30
2022/10/31 08:13:00;;;;;;;;;;;;;;;10.30;74.26;101450.94;5095391;28;20019;-30
2022/10/31 08:15:26;;;;;;;;;;;;;;;10.35;74.26;101459.78;5095743;28;19919;-31
2022/10/31 08:17:51;;;;;;;;;;;;;;;10.40;73.99;101454.50;5088830;28;20011;-31
2022/10/31 08:20:16;;;;;;;;;;;;;;;10.44;74.39;101443.06;5074596;28;20373;-31
2022/10/31 08:22:42;;;;;;;;;;;;;;;10.50;74.00;101448.41;5076001;28;19916;-31
2022/10/31 08:25:08;;;;;;;;;;;;;;;10.55;73.93;101445.81;5074901;28;20358;-31
2022/10/31 08:27:33;;;;;;;;;;;;;;;10.59;74.20;101447.56;5074440;28;20409;-32
2022/10/31 08:29:58;;;;;;;;;;;;;;;10.64;74.11;101450.25;5076447;28;19923;-31
2022/10/31 08:32:24;;;;;;;;;;;;;;;10.68;73.71;101446.72;5083803;28;19916;-31
2022/10/31 08:34:49;;;;;;;;;;;;;;;10.72;73.98;101453.78;5095529;28;19912;-31
2022/10/31 08:37:19;;;;;;;;;;;;;;;10.76;73.61;101458.19;5077428;28;19912;-31
2022/10/31 08:39:47;;;;;;;;;;;;;;;10.81;74.04;101447.66;5095515;28;19912;-31
2022/10/31 08:42:13;;;;;;;;;;;;;;;10.86;73.89;101451.16;5074750;28;19955;-31
2022/10/31 08:44:38;;;;;;;;;;;;;;;10.91;73.91;101443.25;5095000;28;19944;-31
2022/10/31 08:47:04;;;;;;;;;;;;;;;10.96;74.14;101445.88;5087049;28;20369;-31
2022/10/31 08:49:29;;;;;;;;;;;;;;;11.00;74.06;101442.38;5056744;28;19912;-31
2022/10/31 08:51:54;;;;;;;;;;;;;;;11.04;74.23;101439.75;5074721;28;20396;-31
2022/10/31 08:54:20;;;;;;;;;;;;;;;11.08;74.36;101440.66;5074523;28;20377;-31
2022/10/31 08:56:45;;;;;;;;;;;;;;;11.11;74.02;101440.63;5089625;28;19916;-31
2022/10/31 08:59:11;;;;;;;;;;;;;;;11.18;74.21;101438.00;5083163;28;20272;-31
2022/10/31 09:01:36;;;;;;;;;;;;;;;11.22;74.55;101432.75;5087938;28;19966;-31
2022/10/31 09:04:01;;;;;;;;;;;;;;;11.28;74.42;101421.28;5094903;28;20288;-31
2022/10/31 09:06:27;;;;;;;;;;;;;;;11.31;74.34;101420.41;5094530;28;19916;-31
2022/10/31 09:08:52;;;;;;;;;;;;;;;11.36;74.60;101418.63;5072702;28;19920;-31
2022/10/31 09:11:17;;;;;;;;;;;;;;;11.40;74.37;101416.00;5091586;28;19916;-31
2022/10/31 09:13:43;;;;;;;;;;;;;;;11.45;74.33;101415.13;5094569;28;19970;-31
2022/10/31 09:16:08;;;;;;;;;;;;;;;11.50;74.32;101408.94;5076167;28;20355;-31
2022/10/31 09:18:33;;;;;;;;;;;;;;;11.55;74.32;101412.44;5093666;28;19916;-31
2022/10/31 09:20:59;;;;;;;;;;;;;;;11.61;74.38;101410.69;5084920;28;19920;-31
2022/10/31 09:23:24;;;;;;;;;;;;;;;11.67;74.53;101419.50;5093309;28;20281;-31
2022/10/31 09:25:50;;;;;;;;;;;;;;;11.72;74.57;101410.66;5094564;28;19916;-31
2022/10/31 09:28:16;;;;;;;;;;;;;;;11.77;74.86;101415.06;5094570;28;19916;-31
2022/10/31 09:30:41;;;;;;;;;;;;;;;11.83;74.88;101416.81;5091594;28;20373;-31
2022/10/31 09:33:09;;;;;;;;;;;;;;;11.87;74.73;101413.28;5094163;28;19920;-31
2022/10/31 09:35:34;;;;;;;;;;;;;;;11.92;75.17;101408.88;5092973;28;19938;-31
2022/10/31 09:38:01;;;;;;;;;;;;;;;12.00;74.84;101405.34;5093177;28;19919;-31
2022/10/31 09:40:31;;;;;;;;;;;;;;;12.05;75.20;101403.53;5093215;28;19916;-31
2022/10/31 09:43:02;;;;;;;;;;;;;;;12.12;75.13;101413.25;5094026;28;19916;-31
2022/10/31 09:45:31;;;;;;;;;;;;;;;12.21;75.60;101406.16;5093856;28;19963;-31
2022/10/31 09:48:15;;;;;;;;;;;;;;;12.30;75.51;101404.34;5081352;28;19920;-31
2022/10/31 09:50:41;;;;;;;;;;;;;;;12.40;75.90;101399.00;5055035;28;19968;-31
2022/10/31 09:53:12;;;;;;;;;;;;;;;12.50;76.22;101405.16;5055448;28;20373;-31
2022/10/31 09:55:39;;;;;;;;;;;;;;;12.58;76.37;101408.63;5055861;28;19912;-31
2022/10/31 09:58:04;;;;;;;;;;;;;;;12.65;76.47;101410.34;5064015;28;20400;-31
2022/10/31 10:00:31;;;;;;;;;;;;;;;12.74;76.63;101400.59;5070980;28;19916;-31
2022/10/31 10:03:26;;;;;;;;;;;;;;;12.82;76.59;101407.59;5093383;28;19939;-31
2022/10/31 10:05:53;;;;;;;;;;;;;;;12.92;76.72;101391.63;5088576;28;19916;-31
2022/10/31 10:08:19;;;;;;;;;;;;;;;13.01;76.81;101403.94;5086844;28;19923;-31
2022/10/31 10:10:51;;;;;;;;;;;;;;;13.09;76.62;101405.63;5080009;28;20400;-31
2022/10/31 10:13:16;;;;;;;;;;;;;;;13.17;76.50;101397.63;5073014;28;19952;-31
2022/10/31 10:16:01;;;;;;;;;;;;;;;13.26;76.20;101396.66;5073914;28;19981;-31
2022/10/31 10:18:45;;;;;;;;;;;;;;;13.35;76.36;101393.06;5072070;28;19920;-31
2022/10/31 10:21:28;;;;;;;;;;;;;;;13.44;76.13;101385.00;5054619;28;19965;-31
2022/10/31 10:23:57;;;;;;;;;;;;;;;13.54;76.15;101395.56;5072209;28;19912;-31
2022/10/31 10:26:24;;;;;;;;;;;;;;;13.63;76.05;101390.16;5090990;28;19962;-31
2022/10/31 10:28:52;;;;;;;;;;;;;;;13.72;76.07;101387.44;5088960;28;19923;-31
2022/10/31 10:31:19;;;;;;;;;;;;;;;13.82;76.34;101384.66;5074359;28;19914;-31
2022/10/31 10:34:03;;;;;;;;;;;;;;;13.90;76.50;101388.09;5074855;28;19912;-31
2022/10/31 10:36:43;;;;;;;;;;;;;;;14.00;76.29;101385.34;5090527;28;20284;-30
2022/10/31 10:39:14;;;;;;;;;;;;;;;14.11;76.59;101383.44;5092811;28;20010;-31
2022/10/31 10:41:40;;;;;;;;;;;;;;;14.18;76.37;101393.09;5074474;28;19913;-31
2022/10/31 10:44:08;;;;;;;;;;;;;;;14.27;76.41;101384.09;5092369;28;20277;-31
2022/10/31 10:49:31;;;;;;;;;;;;;;;14.46;76.09;101374.13;5058159;28;19923;-31
2022/10/31 10:52:08;;;;;;;;;;;;;;;14.56;76.00;101368.69;5071918;28;19912;-31
2022/10/31 10:54:40;;;;;;;;;;;;;;;14.67;76.86;101369.41;5072430;28;19913;-30
2022/10/31 10:57:24;;;;;;;;;;;;;;;14.73;76.42;101369.31;5081285;28;20400;-31
2022/10/31 10:59:49;;;;;;;;;;;;;;;14.84;76.84;101368.31;5083598;28;19981;-30
2022/10/31 11:02:25;;;;;;;;;;;;;;;14.92;77.70;101360.22;5076975;28;19916;-31
2022/10/31 11:04:51;;;;;;;;;;;;;;;14.99;76.99;101364.53;5075469;28;19928;-31
2022/10/31 11:07:16;;;;;;;;;;;;;;;15.06;76.41;101355.56;5070956;28;19916;-32
2022/10/31 11:09:42;;;;;;;;;;;;;;;15.14;76.65;101347.47;5071914;28;20444;-31
2022/10/31 11:12:14;;;;;;;;;;;;;;;15.23;76.24;101346.41;5070711;28;19982;-30
2022/10/31 11:14:47;;;;;;;;;;;;;;;15.31;76.94;101348.94;5082946;28;19916;-31
2022/10/31 11:17:17;;;;;;;;;;;;;;;15.39;77.05;101347.88;5090945;28;19916;-31
2022/10/31 11:19:43;;;;;;;;;;;;;;;15.48;76.93;101341.50;5037415;28;20003;-31
2022/10/31 11:22:12;;;;;;;;;;;;;;;15.55;76.81;101350.25;5071372;28;20364;-31
2022/10/31 11:24:40;;;;;;;;;;;;;;;15.63;76.70;101339.47;5062491;28;19917;-31
2022/10/31 11:27:15;;;;;;;;;;;;;;;15.72;76.70;101341.06;5072177;28;19999;-31
2022/10/31 11:29:41;;;;;;;;;;;;;;;15.78;76.95;101332.97;5078528;28;19916;-31
2022/10/31 11:32:08;;;;;;;;;;;;;;;15.85;76.57;101339.03;5090891;28;20377;-31
2022/10/31 11:34:37;;;;;;;;;;;;;;;15.91;76.63;101331.78;5074053;28;19916;-31
2022/10/31 11:37:08;;;;;;;;;;;;;;;15.98;76.80;101332.59;5092246;28;19916;-30
2022/10/31 11:39:34;;;;;;;;;;;;;;;16.06;76.64;101326.19;5088042;28;20352;-31
2022/10/31 11:42:00;;;;;;;;;;;;;;;16.13;76.76;101327.81;5069774;28;19959;-31
2022/10/31 11:44:26;;;;;;;;;;;;;;;16.20;76.62;101329.44;5091814;28;20361;-31
2022/10/31 11:46:52;;;;;;;;;;;;;;;16.27;76.93;101328.41;5092588;28;20045;-31
2022/10/31 11:49:25;;;;;;;;;;;;;;;16.34;76.84;101320.28;5091721;28;19912;-31
2022/10/31 11:51:51;;;;;;;;;;;;;;;16.41;77.12;101329.88;5076296;28;19917;-31
2022/10/31 11:54:22;;;;;;;;;;;;;;;16.48;77.44;101325.28;5091969;28;20577;-30
2022/10/31 11:56:47;;;;;;;;;;;;;;;16.53;77.00;101329.59;5092005;28;20399;-31
2022/10/31 11:59:23;;;;;;;;;;;;;;;16.59;76.83;101325.91;5091699;28;19912;-31
2022/10/31 12:01:49;;;;;;;;;;;;;;;16.66;76.96;101315.97;5055989;28;19917;-31
2022/10/31 12:04:16;;;;;;;;;;;;;;;16.72;76.72;101318.50;5071634;28;19919;-31
2022/10/31 12:06:42;;;;;;;;;;;;;;;16.79;76.91;101320.09;5070627;28;19927;-31
2022/10/31 12:09:21;;;;;;;;;;;;;;;16.85;76.83;101312.84;5070011;28;20004;-30
2022/10/31 12:11:53;;;;;;;;;;;;;;;16.91;77.14;101310.06;5053474;28;20405;-31
2022/10/31 12:14:41;;;;;;;;;;;;;;;16.96;76.81;101307.25;5071401;28;19912;-31
2022/10/31 12:17:14;;;;;;;;;;;;;;;17.01;76.74;101298.22;5068336;28;19923;-31
2022/10/31 12:19:59;;;;;;;;;;;;;;;17.06;76.56;101300.81;5055753;28;19920;-31
2022/10/31 12:22:43;;;;;;;;;;;;;;;17.13;76.78;101297.06;5073016;28;19965;-31
2022/10/31 12:25:20;;;;;;;;;;;;;;;17.19;76.97;101288.03;5091620;28;19943;-31
2022/10/31 12:27:51;;;;;;;;;;;;;;;17.25;77.11;101290.53;5089578;28;19912;-31
2022/10/31 12:30:19;;;;;;;;;;;;;;;17.28;77.21;101281.56;5083383;28;19967;-31
2022/10/31 12:32:50;;;;;;;;;;;;;;;17.34;77.11;101281.38;5071346;28;19920;-31
2022/10/31 12:35:19;;;;;;;;;;;;;;;17.37;76.71;101280.44;5071237;28;20323;-31
2022/10/31 12:37:57;;;;;;;;;;;;;;;17.41;76.92;101276.78;5073854;28;19960;-31
2022/10/31 12:40:45;;;;;;;;;;;;;;;17.45;76.65;101270.44;5094061;28;20576;-31
2022/10/31 12:43:28;;;;;;;;;;;;;;;17.48;77.05;101273.03;5073128;28;19923;-31